sensor_id;sensor_type;location;lat;lon;timestamp;temperature;humidity
61201;DHT22;47065;52.898;6.992;2022-11-15T00:01:39;7.60;99.90
61201;DHT22;47065;52.898;6.992;2022-11-15T00:04:06;7.60;99.90
61201;DHT22;47065;52.898;6.992;2022-11-15T00:06:32;7.50;99.90
61201;DHT22;47065;52.898;6.992;2022-11-15T00:08:59;7.50;99.90
61201;DHT22;47065;52.898;6.992;2022-11-15T00:11:25;7.40;99.90
61201;DHT22;47065;52.898;6.992;2022-11-15T00:13:51;7.40;99.90
61201;DHT22;47065;52.898;6.992;2022-11-15T00:16:19;7.30;99.90
61201;DHT22;47065;52.898;6.992;2022-11-15T00:18:45;7.30;99.90
61201;DHT22;47065;52.898;6.992;2022-11-15T00:21:12;7.30;99.90
61201;DHT22;47065;52.898;6.992;2022-11-15T00:23:38;7.30;99.90
61201;DHT22;47065;52.898;6.992;2022-11-15T00:26:08;7.20;99.90
61201;DHT22;47065;52.898;6.992;2022-11-15T00:28:36;7.30;99.90
61201;DHT22;47065;52.898;6.992;2022-11-15T00:31:07;7.20;99.90
61201;DHT22;47065;52.898;6.992;2022-11-15T00:33:33;7.30;99.90
61201;DHT22;47065;52.898;6.992;2022-11-15T00:36:04;7.30;99.90
61201;DHT22;47065;52.898;6.992;2022-11-15T00:38:34;7.30;99.90
61201;DHT22;47065;52.898;6.992;2022-11-15T00:41:00;7.40;99.90
61201;DHT22;47065;52.898;6.992;2022-11-15T00:43:26;7.40;99.90
61201;DHT22;47065;52.898;6.992;2022-11-15T00:45:52;7.50;99.90
61201;DHT22;47065;52.898;6.992;2022-11-15T00:48:18;7.50;99.90
61201;DHT22;47065;52.898;6.992;2022-11-15T00:50:43;7.60;99.90
61201;DHT22;47065;52.898;6.992;2022-11-15T00:53:09;7.60;99.90
61201;DHT22;47065;52.898;6.992;2022-11-15T00:55:35;7.60;99.90
61201;DHT22;47065;52.898;6.992;2022-11-15T00:58:01;7.60;99.90
61201;DHT22;47065;52.898;6.992;2022-11-15T01:00:26;7.60;99.90
61201;DHT22;47065;52.898;6.992;2022-11-15T01:02:52;7.60;99.90
61201;DHT22;47065;52.898;6.992;2022-11-15T01:05:18;7.70;99.90
61201;DHT22;47065;52.898;6.992;2022-11-15T01:07:43;7.70;99.90
61201;DHT22;47065;52.898;6.992;2022-11-15T01:10:09;7.70;99.90
61201;DHT22;47065;52.898;6.992;2022-11-15T01:12:35;7.80;99.90
61201;DHT22;47065;52.898;6.992;2022-11-15T01:15:00;7.80;99.90
61201;DHT22;47065;52.898;6.992;2022-11-15T01:17:26;7.80;99.90
61201;DHT22;47065;52.898;6.992;2022-11-15T01:19:52;7.80;99.90
61201;DHT22;47065;52.898;6.992;2022-11-15T01:22:18;7.90;99.90
61201;DHT22;47065;52.898;6.992;2022-11-15T01:24:44;7.90;99.90
61201;DHT22;47065;52.898;6.992;2022-11-15T01:27:09;7.90;99.90
61201;DHT22;47065;52.898;6.992;2022-11-15T01:29:35;7.90;99.90
61201;DHT22;47065;52.898;6.992;2022-11-15T01:32:01;8.00;99.90
61201;DHT22;47065;52.898;6.992;2022-11-15T01:34:27;8.00;99.90
61201;DHT22;47065;52.898;6.992;2022-11-15T01:36:52;8.00;99.90
61201;DHT22;47065;52.898;6.992;2022-11-15T01:39:18;8.00;99.90
61201;DHT22;47065;52.898;6.992;2022-11-15T01:41:43;8.10;99.90
61201;DHT22;47065;52.898;6.992;2022-11-15T01:47:03;8.10;99.90
61201;DHT22;47065;52.898;6.992;2022-11-15T01:49:33;8.10;99.90
61201;DHT22;47065;52.898;6.992;2022-11-15T01:52:00;8.10;99.90
61201;DHT22;47065;52.898;6.992;2022-11-15T01:54:27;8.10;99.90
61201;DHT22;47065;52.898;6.992;2022-11-15T01:57:01;8.10;99.90
61201;DHT22;47065;52.898;6.992;2022-11-15T01:59:28;8.20;99.90
61201;DHT22;47065;52.898;6.992;2022-11-15T02:01:54;8.10;99.90
61201;DHT22;47065;52.898;6.992;2022-11-15T02:04:28;8.10;99.90
61201;DHT22;47065;52.898;6.992;2022-11-15T02:06:54;8.10;99.90
61201;DHT22;47065;52.898;6.992;2022-11-15T02:09:19;8.10;99.90
61201;DHT22;47065;52.898;6.992;2022-11-15T02:11:46;8.10;99.90
61201;DHT22;47065;52.898;6.992;2022-11-15T02:14:14;8.20;99.90
61201;DHT22;47065;52.898;6.992;2022-11-15T02:17:13;8.20;99.90
61201;DHT22;47065;52.898;6.992;2022-11-15T02:25:39;8.20;99.90
61201;DHT22;47065;52.898;6.992;2022-11-15T02:28:35;8.20;99.90
61201;DHT22;47065;52.898;6.992;2022-11-15T02:31:28;8.20;99.90
61201;DHT22;47065;52.898;6.992;2022-11-15T02:36:44;8.30;99.90
61201;DHT22;47065;52.898;6.992;2022-11-15T02:39:34;8.30;99.90
61201;DHT22;47065;52.898;6.992;2022-11-15T02:42:07;8.30;99.90
61201;DHT22;47065;52.898;6.992;2022-11-15T02:44:56;8.30;99.90
61201;DHT22;47065;52.898;6.992;2022-11-15T02:47:22;8.30;99.90
61201;DHT22;47065;52.898;6.992;2022-11-15T02:49:56;8.30;99.90
61201;DHT22;47065;52.898;6.992;2022-11-15T02:52:24;8.30;99.90
61201;DHT22;47065;52.898;6.992;2022-11-15T02:54:59;8.30;99.90
61201;DHT22;47065;52.898;6.992;2022-11-15T03:00:13;8.30;99.90
61201;DHT22;47065;52.898;6.992;2022-11-15T03:05:30;8.30;99.90
61201;DHT22;47065;52.898;6.992;2022-11-15T03:10:56;8.30;99.90
61201;DHT22;47065;52.898;6.992;2022-11-15T03:13:33;8.30;99.90
61201;DHT22;47065;52.898;6.992;2022-11-15T03:16:05;8.30;99.90
61201;DHT22;47065;52.898;6.992;2022-11-15T03:18:35;8.40;99.90
61201;DHT22;47065;52.898;6.992;2022-11-15T03:21:04;8.30;99.90
61201;DHT22;47065;52.898;6.992;2022-11-15T03:23:31;8.30;99.90
61201;DHT22;47065;52.898;6.992;2022-11-15T03:25:59;8.40;99.90
61201;DHT22;47065;52.898;6.992;2022-11-15T03:28:33;8.40;99.90
61201;DHT22;47065;52.898;6.992;2022-11-15T03:31:02;8.30;99.90
61201;DHT22;47065;52.898;6.992;2022-11-15T03:33:51;8.40;99.90
61201;DHT22;47065;52.898;6.992;2022-11-15T03:36:17;8.40;99.90
61201;DHT22;47065;52.898;6.992;2022-11-15T03:38:44;8.40;99.90
61201;DHT22;47065;52.898;6.992;2022-11-15T03:41:22;8.40;99.90
61201;DHT22;47065;52.898;6.992;2022-11-15T03:46:34;8.40;99.90
61201;DHT22;47065;52.898;6.992;2022-11-15T03:49:15;8.40;99.90
61201;DHT22;47065;52.898;6.992;2022-11-15T03:51:42;8.40;99.90
61201;DHT22;47065;52.898;6.992;2022-11-15T03:54:08;8.40;99.90
61201;DHT22;47065;52.898;6.992;2022-11-15T03:56:33;8.50;99.90
61201;DHT22;47065;52.898;6.992;2022-11-15T03:58:59;8.50;99.90
61201;DHT22;47065;52.898;6.992;2022-11-15T04:01:25;8.50;99.90
61201;DHT22;47065;52.898;6.992;2022-11-15T04:03:50;8.50;99.90
61201;DHT22;47065;52.898;6.992;2022-11-15T04:06:16;8.50;99.90
61201;DHT22;47065;52.898;6.992;2022-11-15T04:08:42;8.50;99.90
61201;DHT22;47065;52.898;6.992;2022-11-15T04:11:07;8.50;99.90
61201;DHT22;47065;52.898;6.992;2022-11-15T04:13:33;8.50;99.90
61201;DHT22;47065;52.898;6.992;2022-11-15T04:15:58;8.50;99.90
61201;DHT22;47065;52.898;6.992;2022-11-15T04:18:24;8.60;99.90
61201;DHT22;47065;52.898;6.992;2022-11-15T04:20:50;8.60;99.90
61201;DHT22;47065;52.898;6.992;2022-11-15T04:23:34;8.60;99.90
61201;DHT22;47065;52.898;6.992;2022-11-15T04:26:33;8.70;99.90
61201;DHT22;47065;52.898;6.992;2022-11-15T04:28:58;8.70;99.90
61201;DHT22;47065;52.898;6.992;2022-11-15T04:31:43;8.70;99.90
61201;DHT22;47065;52.898;6.992;2022-11-15T04:34:08;8.70;99.90
61201;DHT22;47065;52.898;6.992;2022-11-15T04:36:34;8.70;99.90
61201;DHT22;47065;52.898;6.992;2022-11-15T04:39:18;8.80;99.90
61201;DHT22;47065;52.898;6.992;2022-11-15T04:41:44;8.80;99.90
61201;DHT22;47065;52.898;6.992;2022-11-15T04:44:09;8.80;99.90
61201;DHT22;47065;52.898;6.992;2022-11-15T04:46:35;8.80;99.90
61201;DHT22;47065;52.898;6.992;2022-11-15T04:49:01;8.80;99.90
61201;DHT22;47065;52.898;6.992;2022-11-15T04:51:26;8.80;99.90
61201;DHT22;47065;52.898;6.992;2022-11-15T04:53:52;8.90;99.90
61201;DHT22;47065;52.898;6.992;2022-11-15T04:56:18;8.80;99.90
61201;DHT22;47065;52.898;6.992;2022-11-15T04:58:43;8.90;99.90
61201;DHT22;47065;52.898;6.992;2022-11-15T05:01:14;8.90;99.90
61201;DHT22;47065;52.898;6.992;2022-11-15T05:03:43;8.90;99.90
61201;DHT22;47065;52.898;6.992;2022-11-15T05:06:28;8.90;99.90
61201;DHT22;47065;52.898;6.992;2022-11-15T05:08:54;9.00;99.90
61201;DHT22;47065;52.898;6.992;2022-11-15T05:11:20;8.90;99.90
61201;DHT22;47065;52.898;6.992;2022-11-15T05:13:46;9.00;99.90
61201;DHT22;47065;52.898;6.992;2022-11-15T05:16:12;9.00;99.90
61201;DHT22;47065;52.898;6.992;2022-11-15T05:18:38;9.00;99.90
61201;DHT22;47065;52.898;6.992;2022-11-15T05:21:09;9.00;99.90
61201;DHT22;47065;52.898;6.992;2022-11-15T05:23:34;9.00;99.90
61201;DHT22;47065;52.898;6.992;2022-11-15T05:26:01;9.00;99.90
61201;DHT22;47065;52.898;6.992;2022-11-15T05:28:27;9.00;99.90
61201;DHT22;47065;52.898;6.992;2022-11-15T05:30:57;9.10;99.90
61201;DHT22;47065;52.898;6.992;2022-11-15T05:33:25;9.10;99.90
61201;DHT22;47065;52.898;6.992;2022-11-15T05:35:55;9.10;99.90
61201;DHT22;47065;52.898;6.992;2022-11-15T05:38:23;9.10;99.90
61201;DHT22;47065;52.898;6.992;2022-11-15T05:40:49;9.10;99.90
61201;DHT22;47065;52.898;6.992;2022-11-15T05:43:15;9.10;99.90
61201;DHT22;47065;52.898;6.992;2022-11-15T05:45:40;9.20;99.90
61201;DHT22;47065;52.898;6.992;2022-11-15T05:48:08;9.30;99.90
61201;DHT22;47065;52.898;6.992;2022-11-15T05:50:37;9.30;99.90
61201;DHT22;47065;52.898;6.992;2022-11-15T05:53:04;9.30;99.90
61201;DHT22;47065;52.898;6.992;2022-11-15T05:55:31;9.30;99.90
61201;DHT22;47065;52.898;6.992;2022-11-15T05:57:57;9.40;99.90
61201;DHT22;47065;52.898;6.992;2022-11-15T06:00:23;9.40;99.90
61201;DHT22;47065;52.898;6.992;2022-11-15T06:02:48;9.40;99.90
61201;DHT22;47065;52.898;6.992;2022-11-15T06:05:14;9.40;99.90
61201;DHT22;47065;52.898;6.992;2022-11-15T06:07:39;9.50;99.90
61201;DHT22;47065;52.898;6.992;2022-11-15T06:10:06;9.40;99.90
61201;DHT22;47065;52.898;6.992;2022-11-15T06:12:31;9.50;99.90
61201;DHT22;47065;52.898;6.992;2022-11-15T06:14:57;9.50;99.90
61201;DHT22;47065;52.898;6.992;2022-11-15T06:17:23;9.50;99.90
61201;DHT22;47065;52.898;6.992;2022-11-15T06:19:48;9.50;99.90
61201;DHT22;47065;52.898;6.992;2022-11-15T06:22:14;9.50;99.90
61201;DHT22;47065;52.898;6.992;2022-11-15T06:24:39;9.60;99.90
61201;DHT22;47065;52.898;6.992;2022-11-15T06:27:05;9.50;99.90
61201;DHT22;47065;52.898;6.992;2022-11-15T06:29:30;9.60;99.90
61201;DHT22;47065;52.898;6.992;2022-11-15T06:31:56;9.60;99.90
61201;DHT22;47065;52.898;6.992;2022-11-15T06:34:22;9.60;99.90
61201;DHT22;47065;52.898;6.992;2022-11-15T06:36:47;9.60;99.90
61201;DHT22;47065;52.898;6.992;2022-11-15T06:39:13;9.70;99.90
61201;DHT22;47065;52.898;6.992;2022-11-15T06:41:38;9.70;99.90
61201;DHT22;47065;52.898;6.992;2022-11-15T06:44:04;9.70;99.90
61201;DHT22;47065;52.898;6.992;2022-11-15T06:46:30;9.80;99.90
61201;DHT22;47065;52.898;6.992;2022-11-15T06:48:55;9.80;99.90
61201;DHT22;47065;52.898;6.992;2022-11-15T06:51:21;9.90;99.90
61201;DHT22;47065;52.898;6.992;2022-11-15T06:53:47;9.90;99.90
61201;DHT22;47065;52.898;6.992;2022-11-15T06:56:12;9.90;99.90
61201;DHT22;47065;52.898;6.992;2022-11-15T06:58:38;10.00;99.90
61201;DHT22;47065;52.898;6.992;2022-11-15T07:01:07;10.00;99.90
61201;DHT22;47065;52.898;6.992;2022-11-15T07:03:35;10.00;99.90
61201;DHT22;47065;52.898;6.992;2022-11-15T07:06:01;10.10;99.90
61201;DHT22;47065;52.898;6.992;2022-11-15T07:08:27;10.10;99.90
61201;DHT22;47065;52.898;6.992;2022-11-15T07:10:54;10.10;99.90
61201;DHT22;47065;52.898;6.992;2022-11-15T07:13:19;10.20;99.90
61201;DHT22;47065;52.898;6.992;2022-11-15T07:15:45;10.20;99.90
61201;DHT22;47065;52.898;6.992;2022-11-15T07:18:11;10.30;99.90
61201;DHT22;47065;52.898;6.992;2022-11-15T07:20:36;10.30;99.90
61201;DHT22;47065;52.898;6.992;2022-11-15T07:23:03;10.30;99.90
61201;DHT22;47065;52.898;6.992;2022-11-15T07:25:29;10.30;99.90
61201;DHT22;47065;52.898;6.992;2022-11-15T07:27:56;10.40;99.90
61201;DHT22;47065;52.898;6.992;2022-11-15T07:30:22;10.40;99.90
61201;DHT22;47065;52.898;6.992;2022-11-15T07:32:52;10.50;99.90
61201;DHT22;47065;52.898;6.992;2022-11-15T07:35:18;10.50;99.90
61201;DHT22;47065;52.898;6.992;2022-11-15T07:37:44;10.50;99.90
61201;DHT22;47065;52.898;6.992;2022-11-15T07:40:09;10.60;99.90
61201;DHT22;47065;52.898;6.992;2022-11-15T07:42:35;10.60;99.90
61201;DHT22;47065;52.898;6.992;2022-11-15T07:45:20;10.60;99.90
61201;DHT22;47065;52.898;6.992;2022-11-15T07:47:47;10.60;99.90
61201;DHT22;47065;52.898;6.992;2022-11-15T07:50:13;10.70;99.90
61201;DHT22;47065;52.898;6.992;2022-11-15T07:52:38;10.70;99.90
61201;DHT22;47065;52.898;6.992;2022-11-15T07:55:04;10.70;99.90
61201;DHT22;47065;52.898;6.992;2022-11-15T07:57:30;10.70;99.90
61201;DHT22;47065;52.898;6.992;2022-11-15T07:59:56;10.80;99.90
61201;DHT22;47065;52.898;6.992;2022-11-15T08:02:21;10.80;99.90
61201;DHT22;47065;52.898;6.992;2022-11-15T08:04:47;10.80;99.90
61201;DHT22;47065;52.898;6.992;2022-11-15T08:07:13;10.80;99.90
61201;DHT22;47065;52.898;6.992;2022-11-15T08:09:38;10.90;99.90
61201;DHT22;47065;52.898;6.992;2022-11-15T08:12:04;10.90;99.90
61201;DHT22;47065;52.898;6.992;2022-11-15T08:14:30;10.90;99.90
61201;DHT22;47065;52.898;6.992;2022-11-15T08:16:56;11.00;99.90
61201;DHT22;47065;52.898;6.992;2022-11-15T08:19:22;11.00;99.90
61201;DHT22;47065;52.898;6.992;2022-11-15T08:21:47;11.00;99.90
61201;DHT22;47065;52.898;6.992;2022-11-15T08:24:13;11.00;99.90
61201;DHT22;47065;52.898;6.992;2022-11-15T08:26:39;11.10;99.90
61201;DHT22;47065;52.898;6.992;2022-11-15T08:29:06;11.10;99.90
61201;DHT22;47065;52.898;6.992;2022-11-15T08:31:35;11.10;99.90
61201;DHT22;47065;52.898;6.992;2022-11-15T08:34:02;11.20;99.90
61201;DHT22;47065;52.898;6.992;2022-11-15T08:36:28;11.20;99.90
61201;DHT22;47065;52.898;6.992;2022-11-15T08:38:54;11.20;99.90
61201;DHT22;47065;52.898;6.992;2022-11-15T08:41:27;11.20;99.90
61201;DHT22;47065;52.898;6.992;2022-11-15T08:43:53;11.30;99.90
61201;DHT22;47065;52.898;6.992;2022-11-15T08:46:19;11.30;99.90
61201;DHT22;47065;52.898;6.992;2022-11-15T08:48:45;11.30;99.90
61201;DHT22;47065;52.898;6.992;2022-11-15T08:51:10;11.40;99.90
61201;DHT22;47065;52.898;6.992;2022-11-15T08:53:36;11.40;99.90
61201;DHT22;47065;52.898;6.992;2022-11-15T08:56:02;11.40;99.90
61201;DHT22;47065;52.898;6.992;2022-11-15T08:58:28;11.40;99.90
61201;DHT22;47065;52.898;6.992;2022-11-15T09:00:54;11.50;99.90
61201;DHT22;47065;52.898;6.992;2022-11-15T09:03:19;11.40;99.90
61201;DHT22;47065;52.898;6.992;2022-11-15T09:05:45;11.50;99.90
61201;DHT22;47065;52.898;6.992;2022-11-15T09:08:11;11.50;99.90
61201;DHT22;47065;52.898;6.992;2022-11-15T09:10:38;11.50;99.90
61201;DHT22;47065;52.898;6.992;2022-11-15T09:13:03;11.50;99.90
61201;DHT22;47065;52.898;6.992;2022-11-15T09:15:29;11.50;99.90
61201;DHT22;47065;52.898;6.992;2022-11-15T09:17:58;11.50;99.90
61201;DHT22;47065;52.898;6.992;2022-11-15T09:20:24;11.50;99.90
61201;DHT22;47065;52.898;6.992;2022-11-15T09:22:50;11.50;99.90
61201;DHT22;47065;52.898;6.992;2022-11-15T09:25:16;11.50;99.90
61201;DHT22;47065;52.898;6.992;2022-11-15T09:27:41;11.50;99.90
61201;DHT22;47065;52.898;6.992;2022-11-15T09:30:07;11.50;99.90
61201;DHT22;47065;52.898;6.992;2022-11-15T09:32:36;11.60;99.90
61201;DHT22;47065;52.898;6.992;2022-11-15T09:35:01;11.60;99.90
61201;DHT22;47065;52.898;6.992;2022-11-15T09:37:28;11.60;99.90
61201;DHT22;47065;52.898;6.992;2022-11-15T09:39:53;11.60;99.90
61201;DHT22;47065;52.898;6.992;2022-11-15T09:42:43;11.60;99.90
61201;DHT22;47065;52.898;6.992;2022-11-15T09:48:00;11.70;99.90
61201;DHT22;47065;52.898;6.992;2022-11-15T09:50:43;11.70;99.90
61201;DHT22;47065;52.898;6.992;2022-11-15T09:53:24;11.70;99.90
61201;DHT22;47065;52.898;6.992;2022-11-15T09:56:00;11.80;99.90
61201;DHT22;47065;52.898;6.992;2022-11-15T09:58:59;11.80;99.90
61201;DHT22;47065;52.898;6.992;2022-11-15T10:01:41;11.80;99.90
61201;DHT22;47065;52.898;6.992;2022-11-15T10:04:07;11.80;99.90
61201;DHT22;47065;52.898;6.992;2022-11-15T10:06:36;11.80;99.90
61201;DHT22;47065;52.898;6.992;2022-11-15T10:09:11;11.80;99.90
61201;DHT22;47065;52.898;6.992;2022-11-15T10:11:39;11.90;99.90
61201;DHT22;47065;52.898;6.992;2022-11-15T10:14:15;11.90;99.90
61201;DHT22;47065;52.898;6.992;2022-11-15T10:17:09;11.90;99.90
61201;DHT22;47065;52.898;6.992;2022-11-15T10:22:28;11.90;99.90
61201;DHT22;47065;52.898;6.992;2022-11-15T10:27:35;11.90;99.90
61201;DHT22;47065;52.898;6.992;2022-11-15T10:30:01;11.90;99.90
61201;DHT22;47065;52.898;6.992;2022-11-15T10:32:26;11.90;99.90
61201;DHT22;47065;52.898;6.992;2022-11-15T10:34:52;11.90;99.90
61201;DHT22;47065;52.898;6.992;2022-11-15T10:37:29;11.90;99.90
61201;DHT22;47065;52.898;6.992;2022-11-15T10:42:41;12.00;99.90
61201;DHT22;47065;52.898;6.992;2022-11-15T10:45:27;12.10;99.90
61201;DHT22;47065;52.898;6.992;2022-11-15T10:47:54;12.00;99.90
61201;DHT22;47065;52.898;6.992;2022-11-15T10:50:41;12.00;99.90
61201;DHT22;47065;52.898;6.992;2022-11-15T10:53:29;12.10;99.90
61201;DHT22;47065;52.898;6.992;2022-11-15T10:55:59;12.10;99.90
61201;DHT22;47065;52.898;6.992;2022-11-15T10:58:50;12.10;99.90
61201;DHT22;47065;52.898;6.992;2022-11-15T11:01:19;12.10;99.90
61201;DHT22;47065;52.898;6.992;2022-11-15T11:04:06;12.20;99.90
61201;DHT22;47065;52.898;6.992;2022-11-15T11:09:35;12.20;99.90
61201;DHT22;47065;52.898;6.992;2022-11-15T11:12:03;12.30;99.90
61201;DHT22;47065;52.898;6.992;2022-11-15T11:14:34;12.30;99.90
61201;DHT22;47065;52.898;6.992;2022-11-15T11:20:21;12.30;99.90
61201;DHT22;47065;52.898;6.992;2022-11-15T11:25:36;12.30;99.90
61201;DHT22;47065;52.898;6.992;2022-11-15T11:39:28;12.40;99.90
61201;DHT22;47065;52.898;6.992;2022-11-15T11:45:18;12.60;99.90
61201;DHT22;47065;52.898;6.992;2022-11-15T11:50:31;12.60;99.90
61201;DHT22;47065;52.898;6.992;2022-11-15T11:53:12;12.70;99.90
61201;DHT22;47065;52.898;6.992;2022-11-15T11:55:42;12.80;99.90
61201;DHT22;47065;52.898;6.992;2022-11-15T12:03:48;12.90;99.90
61201;DHT22;47065;52.898;6.992;2022-11-15T12:06:37;12.90;99.90
61201;DHT22;47065;52.898;6.992;2022-11-15T12:09:32;12.80;99.90
61201;DHT22;47065;52.898;6.992;2022-11-15T12:17:36;12.80;99.90
61201;DHT22;47065;52.898;6.992;2022-11-15T12:20:26;12.80;99.90
61201;DHT22;47065;52.898;6.992;2022-11-15T12:22:53;12.70;99.90
61201;DHT22;47065;52.898;6.992;2022-11-15T12:26:00;12.70;99.90
61201;DHT22;47065;52.898;6.992;2022-11-15T12:28:42;12.70;99.90
61201;DHT22;47065;52.898;6.992;2022-11-15T12:33:57;12.70;99.90
61201;DHT22;47065;52.898;6.992;2022-11-15T12:39:06;12.80;99.90
61201;DHT22;47065;52.898;6.992;2022-11-15T12:41:33;12.80;99.90
61201;DHT22;47065;52.898;6.992;2022-11-15T12:44:00;12.80;99.90
61201;DHT22;47065;52.898;6.992;2022-11-15T12:48:55;12.80;99.90
61201;DHT22;47065;52.898;6.992;2022-11-15T13:02:23;13.30;99.90
61201;DHT22;47065;52.898;6.992;2022-11-15T13:04:51;13.40;99.90
61201;DHT22;47065;52.898;6.992;2022-11-15T13:17:44;13.60;99.90
61201;DHT22;47065;52.898;6.992;2022-11-15T13:33:25;13.70;99.90
61201;DHT22;47065;52.898;6.992;2022-11-15T13:35:57;13.70;99.90
61201;DHT22;47065;52.898;6.992;2022-11-15T13:38:29;13.70;99.90
61201;DHT22;47065;52.898;6.992;2022-11-15T13:40:57;13.70;99.90
61201;DHT22;47065;52.898;6.992;2022-11-15T13:46:21;13.70;99.90
61201;DHT22;47065;52.898;6.992;2022-11-15T13:49:03;13.60;99.90
61201;DHT22;47065;52.898;6.992;2022-11-15T13:54:13;13.60;99.90
61201;DHT22;47065;52.898;6.992;2022-11-15T13:59:33;13.40;99.90
61201;DHT22;47065;52.898;6.992;2022-11-15T14:02:03;13.40;99.90
61201;DHT22;47065;52.898;6.992;2022-11-15T14:04:38;13.30;99.90
61201;DHT22;47065;52.898;6.992;2022-11-15T14:07:04;13.20;99.90
61201;DHT22;47065;52.898;6.992;2022-11-15T14:09:38;13.20;99.90
61201;DHT22;47065;52.898;6.992;2022-11-15T14:14:50;13.10;99.90
61201;DHT22;47065;52.898;6.992;2022-11-15T14:17:41;13.10;99.90
61201;DHT22;47065;52.898;6.992;2022-11-15T14:22:55;13.00;99.90
61201;DHT22;47065;52.898;6.992;2022-11-15T14:25:25;12.90;99.90
61201;DHT22;47065;52.898;6.992;2022-11-15T14:28:28;12.90;99.90
61201;DHT22;47065;52.898;6.992;2022-11-15T14:30:57;12.90;99.90
61201;DHT22;47065;52.898;6.992;2022-11-15T14:33:36;12.90;99.90
61201;DHT22;47065;52.898;6.992;2022-11-15T14:36:14;12.80;99.90
61201;DHT22;47065;52.898;6.992;2022-11-15T14:38:41;12.70;99.90
61201;DHT22;47065;52.898;6.992;2022-11-15T14:41:22;12.70;99.90
61201;DHT22;47065;52.898;6.992;2022-11-15T14:43:49;12.60;99.90
61201;DHT22;47065;52.898;6.992;2022-11-15T14:46:15;12.60;99.90
61201;DHT22;47065;52.898;6.992;2022-11-15T14:48:41;12.50;99.90
61201;DHT22;47065;52.898;6.992;2022-11-15T14:51:12;12.50;99.90
61201;DHT22;47065;52.898;6.992;2022-11-15T14:53:39;12.40;99.90
61201;DHT22;47065;52.898;6.992;2022-11-15T14:56:04;12.40;99.90
61201;DHT22;47065;52.898;6.992;2022-11-15T14:58:30;12.30;99.90
61201;DHT22;47065;52.898;6.992;2022-11-15T15:00:56;12.30;99.90
61201;DHT22;47065;52.898;6.992;2022-11-15T15:03:21;12.20;99.90
61201;DHT22;47065;52.898;6.992;2022-11-15T15:05:47;12.10;99.90
61201;DHT22;47065;52.898;6.992;2022-11-15T15:08:12;12.10;99.90
61201;DHT22;47065;52.898;6.992;2022-11-15T15:10:44;12.00;99.90
61201;DHT22;47065;52.898;6.992;2022-11-15T15:13:17;11.90;99.90
61201;DHT22;47065;52.898;6.992;2022-11-15T15:15:43;11.90;99.90
61201;DHT22;47065;52.898;6.992;2022-11-15T15:18:09;11.80;99.90
61201;DHT22;47065;52.898;6.992;2022-11-15T15:20:38;11.70;99.90
61201;DHT22;47065;52.898;6.992;2022-11-15T15:23:05;11.70;99.90
61201;DHT22;47065;52.898;6.992;2022-11-15T15:25:33;11.60;99.90
61201;DHT22;47065;52.898;6.992;2022-11-15T15:27:59;11.50;99.90
61201;DHT22;47065;52.898;6.992;2022-11-15T15:30:27;11.50;99.90
61201;DHT22;47065;52.898;6.992;2022-11-15T15:32:52;11.40;99.90
61201;DHT22;47065;52.898;6.992;2022-11-15T15:35:19;11.30;99.90
61201;DHT22;47065;52.898;6.992;2022-11-15T15:37:46;11.20;99.90
61201;DHT22;47065;52.898;6.992;2022-11-15T15:40:16;11.20;99.90
61201;DHT22;47065;52.898;6.992;2022-11-15T15:42:43;11.10;99.90
61201;DHT22;47065;52.898;6.992;2022-11-15T15:45:09;11.00;99.90
61201;DHT22;47065;52.898;6.992;2022-11-15T15:47:35;11.00;99.90
61201;DHT22;47065;52.898;6.992;2022-11-15T15:50:01;10.90;99.90
61201;DHT22;47065;52.898;6.992;2022-11-15T15:52:27;10.80;99.90
61201;DHT22;47065;52.898;6.992;2022-11-15T15:54:53;10.80;99.90
61201;DHT22;47065;52.898;6.992;2022-11-15T15:57:19;10.80;99.90
61201;DHT22;47065;52.898;6.992;2022-11-15T15:59:44;10.70;99.90
61201;DHT22;47065;52.898;6.992;2022-11-15T16:02:13;10.70;99.90
61201;DHT22;47065;52.898;6.992;2022-11-15T16:04:39;10.60;99.90
61201;DHT22;47065;52.898;6.992;2022-11-15T16:07:05;10.60;99.90
61201;DHT22;47065;52.898;6.992;2022-11-15T16:09:31;10.50;99.90
61201;DHT22;47065;52.898;6.992;2022-11-15T16:12:17;10.50;99.90
61201;DHT22;47065;52.898;6.992;2022-11-15T16:14:42;10.40;99.90
61201;DHT22;47065;52.898;6.992;2022-11-15T16:17:19;10.40;99.90
61201;DHT22;47065;52.898;6.992;2022-11-15T16:19:45;10.30;99.90
61201;DHT22;47065;52.898;6.992;2022-11-15T16:22:10;10.30;99.90
61201;DHT22;47065;52.898;6.992;2022-11-15T16:24:36;10.30;99.90
61201;DHT22;47065;52.898;6.992;2022-11-15T16:27:02;10.30;99.90
61201;DHT22;47065;52.898;6.992;2022-11-15T16:29:27;10.20;99.90
61201;DHT22;47065;52.898;6.992;2022-11-15T16:31:53;10.20;99.90
61201;DHT22;47065;52.898;6.992;2022-11-15T16:34:20;10.20;99.90
61201;DHT22;47065;52.898;6.992;2022-11-15T16:36:46;10.10;99.90
61201;DHT22;47065;52.898;6.992;2022-11-15T16:39:12;10.10;99.90
61201;DHT22;47065;52.898;6.992;2022-11-15T16:41:43;10.10;99.90
61201;DHT22;47065;52.898;6.992;2022-11-15T16:44:12;10.10;99.90
61201;DHT22;47065;52.898;6.992;2022-11-15T16:46:41;10.00;99.90
61201;DHT22;47065;52.898;6.992;2022-11-15T16:49:13;10.00;99.90
61201;DHT22;47065;52.898;6.992;2022-11-15T16:51:40;10.00;99.90
61201;DHT22;47065;52.898;6.992;2022-11-15T16:54:06;10.00;99.90
61201;DHT22;47065;52.898;6.992;2022-11-15T16:56:33;10.00;99.90
61201;DHT22;47065;52.898;6.992;2022-11-15T16:59:00;10.00;99.90
61201;DHT22;47065;52.898;6.992;2022-11-15T17:01:34;10.00;99.90
61201;DHT22;47065;52.898;6.992;2022-11-15T17:04:00;10.10;99.90
61201;DHT22;47065;52.898;6.992;2022-11-15T17:06:40;10.10;99.90
61201;DHT22;47065;52.898;6.992;2022-11-15T17:09:17;10.10;99.90
61201;DHT22;47065;52.898;6.992;2022-11-15T17:11:44;10.10;99.90
61201;DHT22;47065;52.898;6.992;2022-11-15T17:14:10;10.10;99.90
61201;DHT22;47065;52.898;6.992;2022-11-15T17:16:36;10.10;99.90
61201;DHT22;47065;52.898;6.992;2022-11-15T17:19:16;10.10;99.90
61201;DHT22;47065;52.898;6.992;2022-11-15T17:21:42;10.20;99.90
61201;DHT22;47065;52.898;6.992;2022-11-15T17:24:08;10.10;99.90
61201;DHT22;47065;52.898;6.992;2022-11-15T17:26:34;10.10;99.90
61201;DHT22;47065;52.898;6.992;2022-11-15T17:29:00;10.20;99.90
61201;DHT22;47065;52.898;6.992;2022-11-15T17:31:26;10.20;99.90
61201;DHT22;47065;52.898;6.992;2022-11-15T17:33:52;10.20;99.90
61201;DHT22;47065;52.898;6.992;2022-11-15T17:36:17;10.20;99.90
61201;DHT22;47065;52.898;6.992;2022-11-15T17:38:43;10.30;99.90
61201;DHT22;47065;52.898;6.992;2022-11-15T17:41:13;10.30;99.90
61201;DHT22;47065;52.898;6.992;2022-11-15T17:43:39;10.30;99.90
61201;DHT22;47065;52.898;6.992;2022-11-15T17:46:12;10.30;99.90
61201;DHT22;47065;52.898;6.992;2022-11-15T17:48:38;10.30;99.90
61201;DHT22;47065;52.898;6.992;2022-11-15T17:51:06;10.30;99.90
61201;DHT22;47065;52.898;6.992;2022-11-15T17:53:37;10.30;99.90
61201;DHT22;47065;52.898;6.992;2022-11-15T17:56:06;10.30;99.90
61201;DHT22;47065;52.898;6.992;2022-11-15T17:58:32;10.30;99.90